»·PEaware :: N623JB KSNA-KBUR

N623JB :: KSNA-KBUR

FLIGHT INFORMATION

Flight Status: Arrived
Operator: Privately registered:
United States
More flights under this callsign
Pilot: Jonathan B. (32222)
Aircraft: CIRRUS SR-22
(SR22)
More flights by this aircraft type
Origin: KSNA John Wayne-Orange Co
United States
Destination: KBUR Bob Hope-Burbank
United States
More flights between these airports :: More routes between these airports
Route: SLI V23 POPPR SMO125R SMO SMO311R SILEX
File this flight plan on PilotEdge
Remarks:
Altitude:
(Current/Filed)
4,000ft
Speed:
(Current/Filed)
140kts
Departed: 17-Nov-20 10:19 AM
Arrived: 17-Nov-20 10:51 AM
Distance/Time
Traveled:
40nm/0:32
Distance/Time
To Go:
Arrived

Flight Plot

Page will automatically refresh every two minutes.


Map Options




Map Legend


Flown Route
Filed Route
Departure Airport
Arrival Airport
Navaid (VOR, NDB)
Fix

Horizontal Profiles

Position Reports

Time Latitude Longitude Heading Altitude Ground
Speed
17-Nov-20 09:54 33.676159 -117.870972 183 52ft 0kts
17-Nov-20 09:55 33.676159 -117.870972 183 52ft 0kts
17-Nov-20 09:57 33.676159 -117.870972 183 52ft 0kts
17-Nov-20 09:58 33.676159 -117.870972 183 52ft 0kts
17-Nov-20 09:59 33.676159 -117.870972 183 52ft 0kts
17-Nov-20 10:00 33.676159 -117.870972 183 52ft 0kts
17-Nov-20 10:01 33.676159 -117.870972 183 52ft 0kts
17-Nov-20 10:02 33.676159 -117.870972 183 52ft 0kts
17-Nov-20 10:03 33.676159 -117.870972 183 52ft 0kts
17-Nov-20 10:04 33.676159 -117.870972 183 52ft 0kts
17-Nov-20 10:05 33.676159 -117.870972 183 52ft 0kts
17-Nov-20 10:06 33.676159 -117.870972 183 52ft 0kts
17-Nov-20 10:07 33.676159 -117.870972 183 52ft 0kts
17-Nov-20 10:08 33.676389 -117.870954 183 52ft 0kts
17-Nov-20 10:09 33.676389 -117.870954 183 52ft 0kts
17-Nov-20 10:10 33.676389 -117.870954 183 52ft 0kts
17-Nov-20 10:11 33.676389 -117.870954 183 52ft 0kts
17-Nov-20 10:12 33.676389 -117.870954 183 52ft 0kts
17-Nov-20 10:13 33.676389 -117.870954 183 52ft 0kts
17-Nov-20 10:14 33.676389 -117.870954 183 52ft 0kts
17-Nov-20 10:15 33.676322 -117.870576 97 53ft 8kts
17-Nov-20 10:15 33.678518 -117.868546 26 50ft 15kts
17-Nov-20 10:17 33.681219 -117.866458 117 43ft 0kts
17-Nov-20 10:17 33.681219 -117.866457 117 43ft 0kts
17-Nov-20 10:19 33.666390 -117.874399 216 548ft 101kts
17-Nov-20 10:19 33.660967 -117.901322 258 1529ft 127kts
17-Nov-20 10:20 33.644533 -117.943712 246 1826ft 138kts
17-Nov-20 10:21 33.627012 -117.981888 240 2581ft 116kts
17-Nov-20 10:22 33.611445 -118.011263 242 3896ft 126kts
17-Nov-20 10:23 33.594178 -118.049245 243 3987ft 118kts
17-Nov-20 10:24 33.578622 -118.082109 242 3993ft 108kts
17-Nov-20 10:25 33.578085 -118.112360 309 4003ft 104kts
17-Nov-20 10:26 33.604304 -118.129689 330 4010ft 123kts
17-Nov-20 10:27 33.639558 -118.150659 330 3995ft 152kts
17-Nov-20 10:28 33.677081 -118.174402 328 3994ft 150kts
17-Nov-20 10:29 33.713677 -118.199421 323 3999ft 150kts
17-Nov-20 10:30 33.749192 -118.225912 332 3998ft 151kts
17-Nov-20 10:31 33.788301 -118.246094 333 4003ft 153kts
17-Nov-20 10:32 33.824528 -118.271395 321 3999ft 149kts
17-Nov-20 10:33 33.857468 -118.302597 317 4000ft 151kts
17-Nov-20 10:34 33.890383 -118.334956 318 4005ft 151kts
17-Nov-20 10:35 33.923178 -118.366563 318 3998ft 153kts
17-Nov-20 10:36 33.955646 -118.400179 315 4001ft 154kts
17-Nov-20 10:37 33.987663 -118.434748 321 3999ft 154kts
17-Nov-20 10:38 34.022816 -118.463007 323 3995ft 152kts
17-Nov-20 10:39 34.054798 -118.495876 324 3997ft 154kts
17-Nov-20 10:40 34.088874 -118.526759 309 4013ft 154kts
17-Nov-20 10:41 34.117512 -118.563642 312 4002ft 147kts
17-Nov-20 10:42 34.146518 -118.598414 312 3999ft 144kts
17-Nov-20 10:43 34.183700 -118.609044 19 3539ft 149kts
17-Nov-20 10:44 34.200285 -118.576032 100 3030ft 132kts
17-Nov-20 10:45 34.199970 -118.532910 87 2997ft 125kts
17-Nov-20 10:46 34.199481 -118.490579 92 2746ft 129kts
17-Nov-20 10:47 34.199012 -118.451324 90 2136ft 112kts
17-Nov-20 10:48 34.198491 -118.413305 91 1463ft 112kts
17-Nov-20 10:49 34.198032 -118.379644 90 935ft 96kts
17-Nov-20 10:50 34.198488 -118.360245 0 717ft 11kts
17-Nov-20 10:51 34.198652 -118.360242 359 717ft 0kts
17-Nov-20 10:52 34.199131 -118.360223 358 716ft 9kts
17-Nov-20 10:53 34.200075 -118.358873 76 720ft 1kts
17-Nov-20 10:54 34.200099 -118.358755 77 720ft 0kts
17-Nov-20 10:55 34.200099 -118.358755 77 720ft 0kts

Navigation Log

Ident Type
Flight plan parsing failed, navigation log unavailable